sensor_id;sensor_type;location;lat;lon;timestamp;pressure;altitude;pressure_sealevel;temperature;humidity
15670;BME280;18524;45.190;5.732;2023-02-19T00:02:46;100339.47;;;11.49;78.92
15670;BME280;18524;45.190;5.732;2023-02-19T00:07:37;100337.91;;;11.20;80.55
15670;BME280;18524;45.190;5.732;2023-02-19T00:12:27;100335.53;;;11.30;80.46
15670;BME280;18524;45.190;5.732;2023-02-19T00:17:17;100334.53;;;11.18;82.65
15670;BME280;18524;45.190;5.732;2023-02-19T00:22:08;100340.81;;;11.15;82.30
15670;BME280;18524;45.190;5.732;2023-02-19T00:26:58;100339.78;;;11.18;81.30
15670;BME280;18524;45.190;5.732;2023-02-19T00:31:48;100335.19;;;11.21;82.53
15670;BME280;18524;45.190;5.732;2023-02-19T00:36:40;100334.25;;;11.08;83.02
15670;BME280;18524;45.190;5.732;2023-02-19T00:41:31;100344.59;;;10.97;83.72
15670;BME280;18524;45.190;5.732;2023-02-19T00:46:24;100339.09;;;10.87;84.06
15670;BME280;18524;45.190;5.732;2023-02-19T00:51:15;100340.50;;;10.79;84.44
15670;BME280;18524;45.190;5.732;2023-02-19T00:56:08;100340.78;;;10.88;82.72
15670;BME280;18524;45.190;5.732;2023-02-19T01:00:58;100337.09;;;10.91;82.58
15670;BME280;18524;45.190;5.732;2023-02-19T01:05:50;100333.47;;;10.79;83.87
15670;BME280;18524;45.190;5.732;2023-02-19T01:10:40;100346.59;;;10.65;83.94
15670;BME280;18524;45.190;5.732;2023-02-19T01:15:34;100337.69;;;10.53;84.13
15670;BME280;18524;45.190;5.732;2023-02-19T01:20:27;100342.75;;;10.56;83.54
15670;BME280;18524;45.190;5.732;2023-02-19T01:25:17;100325.13;;;10.30;86.13
15670;BME280;18524;45.190;5.732;2023-02-19T01:30:08;100329.13;;;10.07;87.38
15670;BME280;18524;45.190;5.732;2023-02-19T01:34:59;100329.06;;;9.93;89.14
15670;BME280;18524;45.190;5.732;2023-02-19T01:39:49;100328.88;;;9.82;89.48
15670;BME280;18524;45.190;5.732;2023-02-19T01:49:50;100325.97;;;9.86;90.29
15670;BME280;18524;45.190;5.732;2023-02-19T01:54:44;100312.50;;;9.62;92.36
15670;BME280;18524;45.190;5.732;2023-02-19T01:59:35;100314.91;;;9.51;93.25
15670;BME280;18524;45.190;5.732;2023-02-19T02:04:26;100321.34;;;9.46;93.76
15670;BME280;18524;45.190;5.732;2023-02-19T02:09:21;100316.56;;;9.38;93.74
15670;BME280;18524;45.190;5.732;2023-02-19T02:14:35;100321.13;;;9.34;94.29
15670;BME280;18524;45.190;5.732;2023-02-19T02:24:43;100307.38;;;9.15;95.89
15670;BME280;18524;45.190;5.732;2023-02-19T02:30:04;100301.91;;;9.04;96.83
15670;BME280;18524;45.190;5.732;2023-02-19T02:35:01;100294.56;;;8.95;98.42
15670;BME280;18524;45.190;5.732;2023-02-19T02:39:53;100292.53;;;9.00;98.52
15670;BME280;18524;45.190;5.732;2023-02-19T02:44:45;100300.19;;;9.19;95.75
15670;BME280;18524;45.190;5.732;2023-02-19T02:49:56;100295.34;;;9.27;95.36
15670;BME280;18524;45.190;5.732;2023-02-19T02:54:56;100286.81;;;9.39;94.72
15670;BME280;18524;45.190;5.732;2023-02-19T02:59:53;100289.75;;;9.03;96.01
15670;BME280;18524;45.190;5.732;2023-02-19T03:04:56;100292.59;;;9.14;95.97
15670;BME280;18524;45.190;5.732;2023-02-19T03:10:14;100287.78;;;8.75;97.71
15670;BME280;18524;45.190;5.732;2023-02-19T03:15:08;100277.91;;;8.80;97.59
15670;BME280;18524;45.190;5.732;2023-02-19T03:20:20;100277.28;;;8.43;100.00
15670;BME280;18524;45.190;5.732;2023-02-19T03:30:30;100270.81;;;8.51;99.50
15670;BME280;18524;45.190;5.732;2023-02-19T03:35:25;100260.25;;;8.36;100.00
15670;BME280;18524;45.190;5.732;2023-02-19T03:40:17;100262.28;;;8.14;100.00
15670;BME280;18524;45.190;5.732;2023-02-19T03:45:15;100266.31;;;8.04;100.00
15670;BME280;18524;45.190;5.732;2023-02-19T04:00:14;100263.41;;;7.75;100.00
15670;BME280;18524;45.190;5.732;2023-02-19T04:05:12;100271.16;;;7.77;100.00
15670;BME280;18524;45.190;5.732;2023-02-19T04:10:05;100272.78;;;7.97;100.00
15670;BME280;18524;45.190;5.732;2023-02-19T04:15:01;100282.09;;;7.85;100.00
15670;BME280;18524;45.190;5.732;2023-02-19T04:19:54;100275.94;;;7.69;100.00
15670;BME280;18524;45.190;5.732;2023-02-19T04:24:49;100275.53;;;7.76;100.00
15670;BME280;18524;45.190;5.732;2023-02-19T04:29:39;100275.94;;;7.69;100.00
15670;BME280;18524;45.190;5.732;2023-02-19T04:34:30;100286.00;;;7.76;100.00
15670;BME280;18524;45.190;5.732;2023-02-19T04:39:20;100279.09;;;7.58;100.00
15670;BME280;18524;45.190;5.732;2023-02-19T04:44:11;100278.31;;;7.39;100.00
15670;BME280;18524;45.190;5.732;2023-02-19T04:49:01;100279.22;;;7.38;100.00
15670;BME280;18524;45.190;5.732;2023-02-19T04:53:52;100283.59;;;7.37;100.00
15670;BME280;18524;45.190;5.732;2023-02-19T04:58:43;100280.84;;;7.40;100.00
15670;BME280;18524;45.190;5.732;2023-02-19T05:03:34;100279.44;;;7.33;100.00
15670;BME280;18524;45.190;5.732;2023-02-19T05:08:24;100282.16;;;7.49;100.00
15670;BME280;18524;45.190;5.732;2023-02-19T05:13:15;100275.09;;;7.51;100.00
15670;BME280;18524;45.190;5.732;2023-02-19T05:18:05;100277.09;;;7.63;100.00
15670;BME280;18524;45.190;5.732;2023-02-19T05:22:55;100278.78;;;7.64;100.00
15670;BME280;18524;45.190;5.732;2023-02-19T05:27:46;100269.41;;;7.60;100.00
15670;BME280;18524;45.190;5.732;2023-02-19T05:32:37;100270.78;;;7.67;100.00
15670;BME280;18524;45.190;5.732;2023-02-19T05:37:27;100261.63;;;7.93;100.00
15670;BME280;18524;45.190;5.732;2023-02-19T05:42:17;100269.66;;;8.06;100.00
15670;BME280;18524;45.190;5.732;2023-02-19T05:47:08;100268.75;;;8.07;100.00
15670;BME280;18524;45.190;5.732;2023-02-19T05:51:58;100278.09;;;8.11;100.00
15670;BME280;18524;45.190;5.732;2023-02-19T05:56:49;100288.53;;;8.28;100.00
15670;BME280;18524;45.190;5.732;2023-02-19T06:01:39;100288.88;;;8.22;100.00
15670;BME280;18524;45.190;5.732;2023-02-19T06:06:30;100281.47;;;8.30;99.24
15670;BME280;18524;45.190;5.732;2023-02-19T06:11:20;100284.06;;;8.30;99.99
15670;BME280;18524;45.190;5.732;2023-02-19T06:16:11;100279.78;;;8.29;100.00
15670;BME280;18524;45.190;5.732;2023-02-19T06:21:03;100295.09;;;8.20;99.39
15670;BME280;18524;45.190;5.732;2023-02-19T06:25:54;100300.25;;;8.04;99.99
15670;BME280;18524;45.190;5.732;2023-02-19T06:30:53;100304.34;;;7.75;100.00
15670;BME280;18524;45.190;5.732;2023-02-19T06:35:43;100299.53;;;7.50;100.00
15670;BME280;18524;45.190;5.732;2023-02-19T06:40:34;100306.66;;;7.46;100.00
15670;BME280;18524;45.190;5.732;2023-02-19T06:45:25;100322.81;;;7.36;100.00
15670;BME280;18524;45.190;5.732;2023-02-19T06:50:16;100320.69;;;7.44;100.00
15670;BME280;18524;45.190;5.732;2023-02-19T06:55:07;100321.66;;;7.24;100.00
15670;BME280;18524;45.190;5.732;2023-02-19T06:59:58;100336.94;;;7.32;100.00
15670;BME280;18524;45.190;5.732;2023-02-19T07:04:48;100321.13;;;7.35;100.00
15670;BME280;18524;45.190;5.732;2023-02-19T07:09:40;100317.13;;;7.28;100.00
15670;BME280;18524;45.190;5.732;2023-02-19T07:14:30;100312.66;;;7.48;100.00
15670;BME280;18524;45.190;5.732;2023-02-19T07:19:20;100304.66;;;7.51;100.00
15670;BME280;18524;45.190;5.732;2023-02-19T07:24:11;100320.03;;;7.58;100.00
15670;BME280;18524;45.190;5.732;2023-02-19T07:29:02;100310.97;;;7.65;100.00
15670;BME280;18524;45.190;5.732;2023-02-19T07:33:53;100314.88;;;7.91;100.00
15670;BME280;18524;45.190;5.732;2023-02-19T07:38:44;100318.69;;;8.18;100.00
15670;BME280;18524;45.190;5.732;2023-02-19T07:43:36;100319.06;;;8.28;100.00
15670;BME280;18524;45.190;5.732;2023-02-19T07:48:26;100326.03;;;8.44;99.19
15670;BME280;18524;45.190;5.732;2023-02-19T07:53:17;100345.31;;;8.59;97.69
15670;BME280;18524;45.190;5.732;2023-02-19T07:58:08;100363.72;;;8.73;97.20
15670;BME280;18524;45.190;5.732;2023-02-19T08:02:58;100351.44;;;9.07;94.58
15670;BME280;18524;45.190;5.732;2023-02-19T08:07:49;100353.25;;;9.52;92.51
15670;BME280;18524;45.190;5.732;2023-02-19T08:12:39;100353.94;;;9.86;90.52
15670;BME280;18524;45.190;5.732;2023-02-19T08:17:48;100363.28;;;10.50;86.61
15670;BME280;18524;45.190;5.732;2023-02-19T08:22:38;100353.16;;;10.86;83.88
15670;BME280;18524;45.190;5.732;2023-02-19T08:27:29;100353.84;;;11.17;81.80
15670;BME280;18524;45.190;5.732;2023-02-19T08:32:19;100352.59;;;11.49;78.68
15670;BME280;18524;45.190;5.732;2023-02-19T08:37:09;100356.97;;;11.63;77.11
15670;BME280;18524;45.190;5.732;2023-02-19T08:42:00;100356.34;;;11.59;78.83
15670;BME280;18524;45.190;5.732;2023-02-19T08:46:50;100368.19;;;11.79;76.77
15670;BME280;18524;45.190;5.732;2023-02-19T08:51:40;100362.16;;;11.92;75.91
15670;BME280;18524;45.190;5.732;2023-02-19T08:56:31;100376.91;;;12.19;74.91
15670;BME280;18524;45.190;5.732;2023-02-19T09:01:22;100373.72;;;12.02;73.52
15670;BME280;18524;45.190;5.732;2023-02-19T09:06:16;100380.66;;;11.90;74.70
15670;BME280;18524;45.190;5.732;2023-02-19T09:11:06;100377.63;;;12.09;73.81
15670;BME280;18524;45.190;5.732;2023-02-19T09:15:57;100381.66;;;12.40;73.63
15670;BME280;18524;45.190;5.732;2023-02-19T09:20:47;100386.81;;;12.67;70.12
15670;BME280;18524;45.190;5.732;2023-02-19T09:25:38;100372.81;;;12.41;70.64
15670;BME280;18524;45.190;5.732;2023-02-19T09:30:31;100369.75;;;12.21;73.39
15670;BME280;18524;45.190;5.732;2023-02-19T09:35:22;100381.41;;;12.94;71.12
15670;BME280;18524;45.190;5.732;2023-02-19T09:40:13;100373.25;;;12.73;70.03
15670;BME280;18524;45.190;5.732;2023-02-19T09:45:04;100371.03;;;12.54;70.69
15670;BME280;18524;45.190;5.732;2023-02-19T09:49:58;100363.66;;;12.34;71.61
15670;BME280;18524;45.190;5.732;2023-02-19T09:54:51;100363.97;;;12.80;70.72
15670;BME280;18524;45.190;5.732;2023-02-19T10:00:01;100365.03;;;13.14;67.53
15670;BME280;18524;45.190;5.732;2023-02-19T10:04:53;100354.41;;;13.52;66.55
15670;BME280;18524;45.190;5.732;2023-02-19T10:09:51;100351.41;;;13.81;65.55
15670;BME280;18524;45.190;5.732;2023-02-19T10:14:48;100351.16;;;14.19;64.04
15670;BME280;18524;45.190;5.732;2023-02-19T10:19:40;100343.47;;;14.16;63.51
15670;BME280;18524;45.190;5.732;2023-02-19T10:24:30;100341.38;;;13.97;64.19
15670;BME280;18524;45.190;5.732;2023-02-19T10:29:21;100339.59;;;14.08;63.83
15670;BME280;18524;45.190;5.732;2023-02-19T10:34:21;100326.50;;;13.96;63.21
15670;BME280;18524;45.190;5.732;2023-02-19T10:44:19;100320.94;;;14.34;59.52
15670;BME280;18524;45.190;5.732;2023-02-19T10:49:31;100314.66;;;14.59;56.95
15670;BME280;18524;45.190;5.732;2023-02-19T10:54:28;100315.94;;;14.87;56.26
15670;BME280;18524;45.190;5.732;2023-02-19T10:59:26;100303.38;;;15.54;54.23
15670;BME280;18524;45.190;5.732;2023-02-19T11:04:17;100292.53;;;15.89;53.45
15670;BME280;18524;45.190;5.732;2023-02-19T11:09:28;100304.91;;;16.61;52.44
15670;BME280;18524;45.190;5.732;2023-02-19T11:14:23;100289.97;;;16.81;50.73
15670;BME280;18524;45.190;5.732;2023-02-19T11:19:41;100277.16;;;17.05;50.42
15670;BME280;18524;45.190;5.732;2023-02-19T11:24:35;100272.88;;;17.24;49.69
15670;BME280;18524;45.190;5.732;2023-02-19T11:29:27;100265.06;;;17.70;49.60
15670;BME280;18524;45.190;5.732;2023-02-19T11:49:33;100255.97;;;17.92;47.34
15670;BME280;18524;45.190;5.732;2023-02-19T12:10:05;100237.75;;;18.07;47.89
15670;BME280;18524;45.190;5.732;2023-02-19T12:20:39;100224.72;;;17.57;49.94
15670;BME280;18524;45.190;5.732;2023-02-19T12:46:12;100180.28;;;18.16;48.63
15670;BME280;18524;45.190;5.732;2023-02-19T12:51:12;100173.84;;;18.46;48.71
15670;BME280;18524;45.190;5.732;2023-02-19T12:56:11;100159.66;;;18.64;49.59
15670;BME280;18524;45.190;5.732;2023-02-19T13:01:04;100150.00;;;18.81;49.78
15670;BME280;18524;45.190;5.732;2023-02-19T13:06:05;100157.22;;;18.71;49.69
15670;BME280;18524;45.190;5.732;2023-02-19T13:11:48;100143.34;;;18.50;50.36
15670;BME280;18524;45.190;5.732;2023-02-19T13:16:38;100146.41;;;18.27;51.48
15670;BME280;18524;45.190;5.732;2023-02-19T13:21:34;100125.06;;;18.19;51.00
15670;BME280;18524;45.190;5.732;2023-02-19T13:37:04;100105.22;;;17.39;54.17
15670;BME280;18524;45.190;5.732;2023-02-19T13:41:56;100118.66;;;17.28;54.88
15670;BME280;18524;45.190;5.732;2023-02-19T13:46:49;100101.38;;;17.24;55.24
15670;BME280;18524;45.190;5.732;2023-02-19T13:51:46;100107.13;;;17.10;55.88
15670;BME280;18524;45.190;5.732;2023-02-19T13:56:39;100095.97;;;16.97;56.90
15670;BME280;18524;45.190;5.732;2023-02-19T14:12:17;100098.28;;;16.61;58.19
15670;BME280;18524;45.190;5.732;2023-02-19T14:21:58;100096.06;;;16.37;59.99
15670;BME280;18524;45.190;5.732;2023-02-19T14:26:49;100109.66;;;16.23;60.73
15670;BME280;18524;45.190;5.732;2023-02-19T14:31:43;100100.19;;;16.11;61.55
15670;BME280;18524;45.190;5.732;2023-02-19T14:36:41;100092.03;;;15.93;62.79
15670;BME280;18524;45.190;5.732;2023-02-19T14:41:36;100102.00;;;15.80;63.59
15670;BME280;18524;45.190;5.732;2023-02-19T14:46:36;100095.31;;;15.76;63.74
15670;BME280;18524;45.190;5.732;2023-02-19T14:51:41;100097.97;;;15.55;64.75
15670;BME280;18524;45.190;5.732;2023-02-19T14:56:34;100099.88;;;15.64;64.49
15670;BME280;18524;45.190;5.732;2023-02-19T15:01:26;100084.88;;;15.53;65.58
15670;BME280;18524;45.190;5.732;2023-02-19T15:06:17;100070.91;;;15.42;65.71
15670;BME280;18524;45.190;5.732;2023-02-19T15:11:18;100066.19;;;15.45;65.72
15670;BME280;18524;45.190;5.732;2023-02-19T15:16:09;100077.69;;;15.35;66.13
15670;BME280;18524;45.190;5.732;2023-02-19T15:21:01;100075.31;;;15.31;66.73
15670;BME280;18524;45.190;5.732;2023-02-19T15:25:52;100084.94;;;15.12;67.51
15670;BME280;18524;45.190;5.732;2023-02-19T15:30:43;100081.84;;;15.07;67.44
15670;BME280;18524;45.190;5.732;2023-02-19T15:35:33;100088.59;;;14.99;67.95
15670;BME280;18524;45.190;5.732;2023-02-19T15:40:28;100094.53;;;14.92;68.60
15670;BME280;18524;45.190;5.732;2023-02-19T15:45:23;100084.44;;;14.86;68.92
15670;BME280;18524;45.190;5.732;2023-02-19T15:50:18;100065.31;;;14.73;69.68
15670;BME280;18524;45.190;5.732;2023-02-19T16:00:45;100090.81;;;14.62;71.11
15670;BME280;18524;45.190;5.732;2023-02-19T16:05:37;100068.66;;;14.54;72.53
15670;BME280;18524;45.190;5.732;2023-02-19T16:10:30;100094.69;;;14.47;73.18
15670;BME280;18524;45.190;5.732;2023-02-19T16:15:21;100092.69;;;14.28;74.06
15670;BME280;18524;45.190;5.732;2023-02-19T16:20:23;100093.56;;;14.06;75.71
15670;BME280;18524;45.190;5.732;2023-02-19T16:25:33;100083.38;;;14.02;75.68
15670;BME280;18524;45.190;5.732;2023-02-19T16:30:31;100088.78;;;13.89;76.43
15670;BME280;18524;45.190;5.732;2023-02-19T16:35:39;100080.41;;;13.84;76.79
15670;BME280;18524;45.190;5.732;2023-02-19T16:45:44;100091.31;;;13.68;78.48
15670;BME280;18524;45.190;5.732;2023-02-19T16:50:35;100095.03;;;13.55;79.25
15670;BME280;18524;45.190;5.732;2023-02-19T16:55:27;100100.78;;;13.49;78.83
15670;BME280;18524;45.190;5.732;2023-02-19T17:00:20;100116.91;;;13.33;79.27
15670;BME280;18524;45.190;5.732;2023-02-19T17:05:11;100117.31;;;13.39;78.47
15670;BME280;18524;45.190;5.732;2023-02-19T17:10:07;100137.25;;;13.31;78.20
15670;BME280;18524;45.190;5.732;2023-02-19T17:14:57;100127.31;;;13.23;78.60
15670;BME280;18524;45.190;5.732;2023-02-19T17:19:48;100146.47;;;13.25;78.30
15670;BME280;18524;45.190;5.732;2023-02-19T17:24:38;100146.72;;;13.22;77.70
15670;BME280;18524;45.190;5.732;2023-02-19T17:29:29;100134.72;;;13.18;77.73
15670;BME280;18524;45.190;5.732;2023-02-19T17:34:22;100158.53;;;13.17;77.39
15670;BME280;18524;45.190;5.732;2023-02-19T17:39:13;100166.34;;;13.18;77.09
15670;BME280;18524;45.190;5.732;2023-02-19T17:44:04;100168.00;;;13.19;76.73
15670;BME280;18524;45.190;5.732;2023-02-19T17:48:54;100179.81;;;13.13;77.15
15670;BME280;18524;45.190;5.732;2023-02-19T17:53:45;100178.41;;;12.97;77.63
15670;BME280;18524;45.190;5.732;2023-02-19T17:58:35;100210.25;;;12.94;77.54
15670;BME280;18524;45.190;5.732;2023-02-19T18:03:25;100207.28;;;12.98;77.36
15670;BME280;18524;45.190;5.732;2023-02-19T18:08:16;100231.81;;;12.99;77.14
15670;BME280;18524;45.190;5.732;2023-02-19T18:13:06;100228.75;;;13.05;76.50
15670;BME280;18524;45.190;5.732;2023-02-19T18:17:58;100235.25;;;12.88;76.70
15670;BME280;18524;45.190;5.732;2023-02-19T18:22:49;100242.06;;;12.91;76.21
15670;BME280;18524;45.190;5.732;2023-02-19T18:27:39;100256.81;;;12.93;75.88
15670;BME280;18524;45.190;5.732;2023-02-19T18:32:30;100255.34;;;12.89;76.22
15670;BME280;18524;45.190;5.732;2023-02-19T18:37:21;100266.09;;;12.86;75.80
15670;BME280;18524;45.190;5.732;2023-02-19T18:42:13;100261.50;;;12.77;75.76
15670;BME280;18524;45.190;5.732;2023-02-19T18:47:05;100267.94;;;12.73;76.45
15670;BME280;18524;45.190;5.732;2023-02-19T18:51:55;100271.19;;;12.76;76.26
15670;BME280;18524;45.190;5.732;2023-02-19T18:56:48;100269.19;;;12.80;75.71
15670;BME280;18524;45.190;5.732;2023-02-19T19:01:38;100270.25;;;12.77;75.90
15670;BME280;18524;45.190;5.732;2023-02-19T19:06:29;100279.75;;;12.67;75.66
15670;BME280;18524;45.190;5.732;2023-02-19T19:11:19;100274.16;;;12.72;75.57
15670;BME280;18524;45.190;5.732;2023-02-19T19:16:11;100290.16;;;12.69;76.14
15670;BME280;18524;45.190;5.732;2023-02-19T19:21:02;100297.53;;;12.76;75.44
15670;BME280;18524;45.190;5.732;2023-02-19T19:25:53;100312.97;;;12.81;75.15
15670;BME280;18524;45.190;5.732;2023-02-19T19:30:44;100295.84;;;12.75;75.21
15670;BME280;18524;45.190;5.732;2023-02-19T19:35:34;100315.28;;;12.86;74.75
15670;BME280;18524;45.190;5.732;2023-02-19T19:40:24;100317.63;;;12.77;75.04
15670;BME280;18524;45.190;5.732;2023-02-19T19:45:15;100315.84;;;12.78;74.72
15670;BME280;18524;45.190;5.732;2023-02-19T19:50:05;100315.06;;;12.89;74.27
15670;BME280;18524;45.190;5.732;2023-02-19T19:54:56;100320.44;;;12.87;74.00
15670;BME280;18524;45.190;5.732;2023-02-19T19:59:48;100315.13;;;13.00;73.22
15670;BME280;18524;45.190;5.732;2023-02-19T20:04:41;100323.25;;;12.97;73.60
15670;BME280;18524;45.190;5.732;2023-02-19T20:09:32;100310.09;;;12.97;73.78
15670;BME280;18524;45.190;5.732;2023-02-19T20:14:23;100316.19;;;12.97;73.34
15670;BME280;18524;45.190;5.732;2023-02-19T20:19:15;100321.34;;;13.11;72.16
15670;BME280;18524;45.190;5.732;2023-02-19T20:24:06;100317.75;;;13.00;72.44
15670;BME280;18524;45.190;5.732;2023-02-19T20:28:57;100313.91;;;12.93;72.48
15670;BME280;18524;45.190;5.732;2023-02-19T20:33:48;100309.78;;;13.01;71.79
15670;BME280;18524;45.190;5.732;2023-02-19T20:38:40;100321.88;;;13.04;72.24
15670;BME280;18524;45.190;5.732;2023-02-19T20:43:32;100329.91;;;12.90;72.77
15670;BME280;18524;45.190;5.732;2023-02-19T20:48:22;100335.69;;;12.95;72.37
15670;BME280;18524;45.190;5.732;2023-02-19T20:53:13;100335.91;;;12.92;72.51
15670;BME280;18524;45.190;5.732;2023-02-19T20:58:03;100338.53;;;13.04;72.16
15670;BME280;18524;45.190;5.732;2023-02-19T21:02:54;100326.44;;;13.02;71.32
15670;BME280;18524;45.190;5.732;2023-02-19T21:07:45;100324.63;;;13.02;71.57
15670;BME280;18524;45.190;5.732;2023-02-19T21:12:35;100316.84;;;13.01;71.58
15670;BME280;18524;45.190;5.732;2023-02-19T21:17:26;100316.63;;;12.91;72.02
15670;BME280;18524;45.190;5.732;2023-02-19T21:22:16;100311.81;;;12.85;72.51
15670;BME280;18524;45.190;5.732;2023-02-19T21:27:10;100315.34;;;12.97;71.89
15670;BME280;18524;45.190;5.732;2023-02-19T21:32:00;100302.72;;;13.02;71.72
15670;BME280;18524;45.190;5.732;2023-02-19T21:36:51;100319.28;;;12.91;71.94
15670;BME280;18524;45.190;5.732;2023-02-19T21:41:42;100320.22;;;12.90;72.31
15670;BME280;18524;45.190;5.732;2023-02-19T21:46:32;100322.97;;;12.89;72.17
15670;BME280;18524;45.190;5.732;2023-02-19T21:51:31;100322.63;;;12.93;71.45
15670;BME280;18524;45.190;5.732;2023-02-19T21:56:24;100326.94;;;12.94;71.67
15670;BME280;18524;45.190;5.732;2023-02-19T22:01:31;100322.53;;;12.95;71.16
15670;BME280;18524;45.190;5.732;2023-02-19T22:06:24;100326.56;;;12.88;72.08
15670;BME280;18524;45.190;5.732;2023-02-19T22:11:15;100316.53;;;12.93;71.64
15670;BME280;18524;45.190;5.732;2023-02-19T22:16:07;100315.47;;;12.95;71.37
15670;BME280;18524;45.190;5.732;2023-02-19T22:20:58;100313.38;;;12.88;71.72
15670;BME280;18524;45.190;5.732;2023-02-19T22:25:48;100322.88;;;12.77;72.29
15670;BME280;18524;45.190;5.732;2023-02-19T22:30:39;100332.25;;;12.81;71.79
15670;BME280;18524;45.190;5.732;2023-02-19T22:35:30;100337.63;;;12.80;71.76
15670;BME280;18524;45.190;5.732;2023-02-19T22:40:21;100333.88;;;12.71;72.08
15670;BME280;18524;45.190;5.732;2023-02-19T22:45:11;100347.84;;;12.84;71.20
15670;BME280;18524;45.190;5.732;2023-02-19T22:50:02;100345.75;;;12.77;71.91
15670;BME280;18524;45.190;5.732;2023-02-19T22:54:54;100348.50;;;12.75;73.98
15670;BME280;18524;45.190;5.732;2023-02-19T22:59:44;100341.44;;;12.50;75.87
15670;BME280;18524;45.190;5.732;2023-02-19T23:04:34;100351.25;;;12.48;76.42
15670;BME280;18524;45.190;5.732;2023-02-19T23:09:27;100359.25;;;12.47;77.21
15670;BME280;18524;45.190;5.732;2023-02-19T23:14:19;100352.72;;;12.52;76.82
15670;BME280;18524;45.190;5.732;2023-02-19T23:19:13;100348.63;;;12.36;77.94
15670;BME280;18524;45.190;5.732;2023-02-19T23:24:04;100356.63;;;12.34;78.43
15670;BME280;18524;45.190;5.732;2023-02-19T23:28:54;100354.28;;;12.42;78.44
15670;BME280;18524;45.190;5.732;2023-02-19T23:33:45;100356.72;;;12.33;78.98
15670;BME280;18524;45.190;5.732;2023-02-19T23:38:35;100359.72;;;12.01;79.98
15670;BME280;18524;45.190;5.732;2023-02-19T23:43:26;100363.81;;;11.93;80.44
15670;BME280;18524;45.190;5.732;2023-02-19T23:48:16;100362.38;;;12.01;79.61
15670;BME280;18524;45.190;5.732;2023-02-19T23:53:07;100353.84;;;12.10;79.54
15670;BME280;18524;45.190;5.732;2023-02-19T23:57:57;100359.44;;;12.06;80.29
